createdAt,value
2017-09-12T00:00:32.148Z,11.10
2017-09-12T00:02:59.621Z,11.10
2017-09-12T00:05:27.093Z,11.00
2017-09-12T00:07:54.590Z,11.10
2017-09-12T00:10:22.832Z,11.30
2017-09-12T00:12:50.322Z,11.30
2017-09-12T00:15:18.561Z,11.40
2017-09-12T00:17:46.037Z,11.40
2017-09-12T00:20:13.525Z,11.30
2017-09-12T00:22:40.998Z,11.30
2017-09-12T00:25:08.474Z,11.30
2017-09-12T00:27:36.329Z,11.20
2017-09-12T00:30:03.802Z,11.20
2017-09-12T00:32:31.273Z,11.10
2017-09-12T00:34:58.762Z,11.10
2017-09-12T00:37:26.998Z,10.90
2017-09-12T00:39:54.476Z,10.80
2017-09-12T00:42:21.965Z,10.90
2017-09-12T00:44:49.437Z,10.80
2017-09-12T00:47:16.914Z,10.90
2017-09-12T00:49:44.665Z,10.80
2017-09-12T00:52:12.133Z,10.90
2017-09-12T00:54:39.605Z,10.80
2017-09-12T00:57:07.106Z,10.60
2017-09-12T00:59:35.346Z,10.60
2017-09-12T01:02:02.825Z,10.50
2017-09-12T01:04:31.077Z,10.50
2017-09-12T01:06:58.805Z,10.50
2017-09-12T01:09:26.310Z,10.30
2017-09-12T01:11:53.786Z,10.30
2017-09-12T01:14:22.025Z,10.30
2017-09-12T01:16:49.514Z,10.30
2017-09-12T01:19:17.753Z,10.30
2017-09-12T01:21:45.222Z,10.30
2017-09-12T01:24:12.714Z,10.50
2017-09-12T01:26:40.192Z,10.60
2017-09-12T01:29:07.694Z,10.70
2017-09-12T01:31:35.209Z,10.70
2017-09-12T01:34:02.682Z,10.70
2017-09-12T01:36:30.173Z,10.60
2017-09-12T01:38:57.889Z,10.60
2017-09-12T01:41:25.362Z,10.60
2017-09-12T01:43:52.869Z,10.70
2017-09-12T01:46:21.110Z,10.70
2017-09-12T01:48:48.614Z,10.70
2017-09-12T01:51:16.097Z,10.70
2017-09-12T01:53:43.574Z,10.60
2017-09-12T01:56:11.069Z,10.60
2017-09-12T01:58:39.305Z,10.60
2017-09-12T02:01:06.773Z,10.60
2017-09-12T02:03:34.261Z,10.70
2017-09-12T02:06:02.502Z,10.70
2017-09-12T02:08:29.993Z,10.60
2017-09-12T02:10:58.229Z,10.80
2017-09-12T02:13:25.729Z,10.80
2017-09-12T02:15:55.707Z,10.70
2017-09-12T02:18:23.320Z,10.70
2017-09-12T02:20:50.790Z,10.60
2017-09-12T02:23:18.265Z,10.50
2017-09-12T02:25:45.754Z,10.60
2017-09-12T02:28:13.237Z,10.60
2017-09-12T02:30:41.499Z,10.60
2017-09-12T02:33:09.741Z,10.70
2017-09-12T02:35:37.217Z,10.70
2017-09-12T02:38:04.709Z,10.70
2017-09-12T02:40:32.182Z,10.90
2017-09-12T02:42:59.653Z,10.90
2017-09-12T02:45:27.149Z,11.00
2017-09-12T02:47:54.621Z,11.10
2017-09-12T02:50:22.877Z,11.10
2017-09-12T02:52:50.345Z,11.10
2017-09-12T02:55:17.833Z,11.10
2017-09-12T02:57:45.306Z,11.10
2017-09-12T03:00:12.778Z,11.00
2017-09-12T03:02:40.265Z,11.00
2017-09-12T03:05:07.733Z,11.10
2017-09-12T03:07:35.993Z,11.20
2017-09-12T03:10:03.517Z,11.10
2017-09-12T03:12:31.009Z,11.20
2017-09-12T03:14:58.485Z,11.20
2017-09-12T03:17:26.738Z,11.20
2017-09-12T03:19:54.241Z,11.20
2017-09-12T03:22:21.721Z,11.10
2017-09-12T03:24:49.590Z,11.10
2017-09-12T03:27:17.061Z,11.00
2017-09-12T03:29:44.533Z,10.90
2017-09-12T03:32:12.025Z,11.00
2017-09-12T03:34:40.261Z,11.10
2017-09-12T03:37:07.733Z,11.00
2017-09-12T03:39:35.221Z,11.10
2017-09-12T03:42:02.696Z,11.10
2017-09-12T03:44:30.170Z,11.20
2017-09-12T03:46:57.921Z,11.10
2017-09-12T03:49:25.393Z,10.90
2017-09-12T03:51:52.886Z,10.80
2017-09-12T03:54:20.357Z,10.80
2017-09-12T03:56:48.877Z,11.10
2017-09-12T03:59:16.357Z,11.10
2017-09-12T04:01:43.830Z,11.20
2017-09-12T04:04:12.101Z,11.30
2017-09-12T04:06:39.825Z,11.30
2017-09-12T04:09:07.313Z,11.30
2017-09-12T04:11:35.550Z,11.40
2017-09-12T04:14:03.043Z,11.40
2017-09-12T04:16:30.513Z,11.40
2017-09-12T04:18:58.394Z,11.40
2017-09-12T04:21:25.882Z,11.40
2017-09-12T04:23:53.373Z,11.50
2017-09-12T04:26:20.845Z,11.60
2017-09-12T04:28:48.317Z,11.60
2017-09-12T04:31:15.810Z,11.60
2017-09-12T04:33:43.288Z,11.60
2017-09-12T04:36:10.778Z,11.50
2017-09-12T04:38:38.257Z,11.50
2017-09-12T04:41:06.497Z,11.60
2017-09-12T04:43:34.109Z,11.60
2017-09-12T04:46:01.583Z,11.60
2017-09-12T04:48:29.073Z,11.60
2017-09-12T04:50:56.548Z,11.70
2017-09-12T04:53:24.041Z,11.80
2017-09-12T04:55:51.514Z,11.80
2017-09-12T04:58:19.009Z,11.90
2017-09-12T05:00:46.485Z,12.00
2017-09-12T05:03:13.959Z,12.00
2017-09-12T05:05:42.231Z,11.90
2017-09-12T05:08:10.685Z,11.90
2017-09-12T05:10:38.181Z,11.90
2017-09-12T05:13:05.662Z,11.90
2017-09-12T05:15:33.150Z,11.90
2017-09-12T05:18:00.626Z,12.00
2017-09-12T05:20:28.117Z,12.10
2017-09-12T05:22:55.589Z,12.10
2017-09-12T05:25:23.060Z,12.20
2017-09-12T05:27:51.318Z,12.20
2017-09-12T05:30:18.789Z,12.20
2017-09-12T05:32:46.278Z,12.30
2017-09-12T05:35:14.481Z,12.30
2017-09-12T05:37:42.738Z,12.40
2017-09-12T05:40:10.213Z,12.40
2017-09-12T05:42:38.449Z,12.50
2017-09-12T05:45:05.945Z,12.50
2017-09-12T05:47:34.234Z,12.50
2017-09-12T05:50:01.729Z,12.50
2017-09-12T05:52:29.201Z,12.60
2017-09-12T05:54:56.672Z,12.60
2017-09-12T05:57:24.490Z,12.60
2017-09-12T05:59:51.970Z,12.60
2017-09-12T06:02:19.442Z,12.70
2017-09-12T06:04:46.934Z,12.70
2017-09-12T06:07:14.406Z,12.70
2017-09-12T06:09:41.948Z,12.70
2017-09-12T06:12:10.189Z,12.90
2017-09-12T06:14:37.677Z,12.90
2017-09-12T06:17:05.163Z,13.10
2017-09-12T06:19:32.662Z,13.30
2017-09-12T06:22:00.145Z,13.50
2017-09-12T06:24:28.661Z,13.70
2017-09-12T06:26:56.157Z,13.70
2017-09-12T06:29:24.185Z,13.70
2017-09-12T06:31:51.695Z,13.70
2017-09-12T06:34:19.962Z,13.60
2017-09-12T06:36:47.473Z,13.60
2017-09-12T06:39:14.966Z,13.50
2017-09-12T06:41:42.467Z,13.40
2017-09-12T06:44:10.742Z,13.40
2017-09-12T06:46:39.009Z,13.40
2017-09-12T06:49:07.258Z,13.30
2017-09-12T06:51:34.738Z,13.30
2017-09-12T06:54:02.993Z,13.20
2017-09-12T06:56:30.464Z,13.10
2017-09-12T06:58:57.963Z,13.10
2017-09-12T07:01:25.446Z,13.00
2017-09-12T07:03:52.917Z,13.00
2017-09-12T07:06:20.409Z,13.00
2017-09-12T07:08:48.666Z,13.00
2017-09-12T07:11:16.146Z,13.00
2017-09-12T07:13:44.380Z,13.10
2017-09-12T07:16:11.873Z,13.10
2017-09-12T07:18:40.119Z,13.30
2017-09-12T07:21:07.606Z,13.30
2017-09-12T07:23:35.197Z,13.40
2017-09-12T07:26:02.670Z,13.50
2017-09-12T07:28:30.165Z,13.50
2017-09-12T07:30:58.405Z,13.70
2017-09-12T07:33:26.153Z,13.70
2017-09-12T07:35:53.645Z,13.70
2017-09-12T07:38:21.123Z,13.70
2017-09-12T07:40:49.644Z,13.80
2017-09-12T07:43:17.122Z,13.80
2017-09-12T07:45:44.597Z,13.90
2017-09-12T07:48:12.093Z,13.90
2017-09-12T07:50:39.565Z,13.90
2017-09-12T07:53:07.050Z,14.00
2017-09-12T07:55:34.553Z,13.90
2017-09-12T07:58:02.795Z,13.80
2017-09-12T08:00:30.276Z,13.70
2017-09-12T08:02:58.538Z,14.10
2017-09-12T08:05:26.022Z,14.10
2017-09-12T08:08:11.152Z,14.40
2017-09-12T08:10:38.629Z,14.40
2017-09-12T08:13:06.125Z,14.50
2017-09-12T08:15:33.905Z,14.40
2017-09-12T08:18:01.389Z,14.40
2017-09-12T08:20:28.889Z,14.40
2017-09-12T08:22:57.130Z,14.80
2017-09-12T08:25:24.605Z,14.70
2017-09-12T08:27:52.105Z,14.80
2017-09-12T08:30:19.577Z,15.00
2017-09-12T08:32:47.329Z,15.10
2017-09-12T08:35:15.095Z,15.10
2017-09-12T08:37:42.565Z,15.20
2017-09-12T08:40:10.069Z,15.40
2017-09-12T08:42:38.310Z,15.30
2017-09-12T08:45:06.047Z,15.30
2017-09-12T08:47:33.538Z,15.20
2017-09-12T08:50:01.012Z,15.20
2017-09-12T08:52:28.492Z,15.10
2017-09-12T08:54:55.994Z,15.10
2017-09-12T08:57:24.237Z,15.00
2017-09-12T08:59:52.014Z,14.90
2017-09-12T09:02:19.493Z,14.80
2017-09-12T09:04:46.994Z,14.80
2017-09-12T09:07:15.233Z,14.90
2017-09-12T09:09:42.725Z,14.80
2017-09-12T09:12:10.961Z,15.00
2017-09-12T09:14:38.433Z,15.10
2017-09-12T09:17:05.930Z,14.90
2017-09-12T09:19:33.402Z,14.80
2017-09-12T09:22:00.878Z,14.60
2017-09-12T09:24:28.370Z,14.70
2017-09-12T09:26:55.858Z,14.80
2017-09-12T09:29:23.350Z,14.80
2017-09-12T09:31:50.821Z,14.90
2017-09-12T09:34:18.298Z,15.30
2017-09-12T09:36:45.793Z,15.60
2017-09-12T09:39:13.274Z,15.70
2017-09-12T09:41:40.766Z,16.20
2017-09-12T09:44:08.486Z,16.10
2017-09-12T09:46:35.961Z,15.70
2017-09-12T09:49:03.456Z,15.30
2017-09-12T09:51:31.702Z,15.70
2017-09-12T09:53:59.208Z,15.70
2017-09-12T09:56:26.683Z,16.70
2017-09-12T09:58:54.178Z,17.50
2017-09-12T10:01:21.665Z,17.60
2017-09-12T10:03:49.910Z,17.50
2017-09-12T10:06:17.406Z,17.40
2017-09-12T10:08:45.645Z,18.50
2017-09-12T10:11:14.277Z,19.30
2017-09-12T10:13:41.753Z,19.20
2017-09-12T10:16:09.326Z,19.30
2017-09-12T10:18:36.809Z,18.80
2017-09-12T10:21:04.327Z,18.20
2017-09-12T10:23:32.095Z,17.60
2017-09-12T10:25:59.565Z,17.30
2017-09-12T10:28:27.060Z,17.20
2017-09-12T10:30:54.535Z,17.70
2017-09-12T10:33:22.015Z,17.70
2017-09-12T10:35:49.504Z,17.70
2017-09-12T10:38:17.245Z,18.20
2017-09-12T10:40:44.764Z,18.90
2017-09-12T10:43:13.005Z,20.30
2017-09-12T10:45:40.481Z,20.20
2017-09-12T10:48:07.975Z,20.40
2017-09-12T10:50:35.450Z,20.90
2017-09-12T10:53:02.954Z,21.00
2017-09-12T10:55:30.425Z,21.00
2017-09-12T10:57:58.687Z,21.20
2017-09-12T11:00:26.164Z,21.20
2017-09-12T11:02:54.434Z,21.30
2017-09-12T11:05:22.669Z,21.70
2017-09-12T11:07:50.137Z,21.70
2017-09-12T11:10:17.626Z,21.90
2017-09-12T11:12:45.873Z,22.50
2017-09-12T11:15:13.354Z,22.50
2017-09-12T11:17:41.618Z,22.40
2017-09-12T11:20:09.093Z,22.40
2017-09-12T11:22:37.350Z,22.90
2017-09-12T11:25:04.825Z,22.90
2017-09-12T11:27:33.086Z,22.90
2017-09-12T11:30:00.618Z,22.90
2017-09-12T11:32:28.878Z,22.30
2017-09-12T11:34:56.352Z,22.20
2017-09-12T11:37:23.833Z,21.70
2017-09-12T11:39:51.321Z,21.40
2017-09-12T11:42:18.817Z,21.60
2017-09-12T11:44:46.296Z,21.30
2017-09-12T11:47:13.768Z,20.00
2017-09-12T11:49:42.033Z,17.50
2017-09-12T11:52:09.514Z,17.50
2017-09-12T11:54:37.765Z,16.00
2017-09-12T11:57:05.262Z,16.00
2017-09-12T11:59:33.041Z,15.60
2017-09-12T12:02:00.517Z,15.20
2017-09-12T12:04:28.018Z,15.30
2017-09-12T12:06:56.267Z,15.80
2017-09-12T12:09:23.762Z,15.70
2017-09-12T12:11:52.002Z,16.50
2017-09-12T12:14:19.481Z,16.50
2017-09-12T12:16:46.990Z,16.80
2017-09-12T12:19:14.485Z,17.10
2017-09-12T12:21:41.963Z,17.40
2017-09-12T12:24:10.230Z,18.70
2017-09-12T12:26:37.710Z,18.70
2017-09-12T12:29:05.194Z,19.50
2017-09-12T12:31:32.690Z,19.50
2017-09-12T12:34:00.169Z,19.40
2017-09-12T12:36:28.430Z,18.80
2017-09-12T12:38:56.673Z,18.70
2017-09-12T12:41:24.170Z,18.70
2017-09-12T12:43:52.410Z,19.20
2017-09-12T12:46:19.902Z,19.20
2017-09-12T12:48:48.137Z,20.60
2017-09-12T12:51:15.614Z,20.60
2017-09-12T12:53:43.105Z,21.10
2017-09-12T12:56:10.580Z,21.20
2017-09-12T12:58:38.077Z,21.20
2017-09-12T13:01:05.552Z,21.50
2017-09-12T13:03:33.029Z,21.70
2017-09-12T13:06:01.537Z,20.50
2017-09-12T13:08:29.010Z,20.40
2017-09-12T13:10:56.507Z,19.80
2017-09-12T13:13:24.749Z,20.40
2017-09-12T13:15:52.989Z,20.80
2017-09-12T13:18:20.486Z,20.70
2017-09-12T13:20:47.962Z,20.40
2017-09-12T13:23:15.457Z,20.30
2017-09-12T13:25:42.933Z,20.70
2017-09-12T13:28:10.409Z,20.90
2017-09-12T13:30:37.902Z,21.00
2017-09-12T13:33:06.150Z,20.70
2017-09-12T13:35:33.635Z,20.70
2017-09-12T13:38:01.905Z,20.80
2017-09-12T13:40:29.390Z,20.70
2017-09-12T13:42:56.888Z,20.60
2017-09-12T13:45:24.381Z,20.30
2017-09-12T13:47:52.625Z,19.70
2017-09-12T13:50:20.126Z,19.70
2017-09-12T13:52:48.642Z,19.20
2017-09-12T13:55:16.138Z,19.20
2017-09-12T13:57:43.621Z,18.80
2017-09-12T14:00:11.883Z,18.70
2017-09-12T14:02:39.357Z,18.70
2017-09-12T14:05:07.597Z,18.40
2017-09-12T14:07:35.086Z,18.40
2017-09-12T14:10:03.326Z,18.20
2017-09-12T14:12:30.822Z,18.20
2017-09-12T14:14:59.173Z,18.20
2017-09-12T14:17:26.669Z,18.10
2017-09-12T14:19:54.147Z,18.00
2017-09-12T14:22:21.623Z,17.80
2017-09-12T14:24:49.118Z,17.70
2017-09-12T14:27:17.361Z,17.60
2017-09-12T14:29:44.872Z,17.60
2017-09-12T14:32:12.362Z,17.40
2017-09-12T14:34:39.843Z,17.30
2017-09-12T14:37:08.126Z,17.30
2017-09-12T14:39:35.602Z,17.30
2017-09-12T14:42:04.226Z,17.20
2017-09-12T14:44:31.713Z,17.20
2017-09-12T14:46:59.197Z,17.00
2017-09-12T14:49:27.471Z,16.90
2017-09-12T14:51:55.717Z,17.00
2017-09-12T14:54:23.218Z,17.00
2017-09-12T14:56:51.463Z,17.00
2017-09-12T14:59:18.956Z,17.00
2017-09-12T15:01:46.453Z,17.10
2017-09-12T15:04:13.925Z,17.20
2017-09-12T15:06:41.398Z,17.40
2017-09-12T15:09:08.889Z,17.60
2017-09-12T15:11:36.382Z,17.70
2017-09-12T15:14:03.853Z,17.60
2017-09-12T15:16:31.349Z,17.60
2017-09-12T15:18:59.589Z,17.20
2017-09-12T15:21:27.069Z,17.20
2017-09-12T15:23:55.331Z,17.10
2017-09-12T15:26:22.809Z,17.10
2017-09-12T15:28:51.074Z,16.90
2017-09-12T15:31:18.551Z,16.90
2017-09-12T15:33:46.790Z,16.60
2017-09-12T15:36:14.285Z,16.60
2017-09-12T15:38:42.531Z,16.40
2017-09-12T15:41:10.030Z,16.30
2017-09-12T15:43:37.506Z,16.10
2017-09-12T15:46:05.002Z,16.00
2017-09-12T15:48:32.481Z,15.90
2017-09-12T15:51:00.757Z,15.60
2017-09-12T15:53:28.997Z,15.60
2017-09-12T15:55:56.497Z,15.60
2017-09-12T15:58:25.213Z,15.80
2017-09-12T16:00:52.722Z,15.70
2017-09-12T16:03:20.982Z,15.70
2017-09-12T16:05:48.470Z,15.70
2017-09-12T16:08:16.726Z,16.00
2017-09-12T16:10:44.209Z,15.90
2017-09-12T16:13:12.469Z,16.30
2017-09-12T16:15:40.714Z,16.40
2017-09-12T16:18:08.225Z,16.40
2017-09-12T16:20:35.722Z,16.40
2017-09-12T16:23:03.209Z,16.30
2017-09-12T16:25:31.469Z,16.10
2017-09-12T16:27:58.950Z,16.00
2017-09-12T16:30:27.221Z,15.90
2017-09-12T16:32:55.478Z,16.00
2017-09-12T16:35:22.981Z,15.90
2017-09-12T16:37:50.477Z,16.00
2017-09-12T16:40:17.958Z,15.90
2017-09-12T16:42:45.459Z,15.80
2017-09-12T16:45:12.933Z,15.80
2017-09-12T16:47:40.415Z,15.80
2017-09-12T16:50:07.921Z,15.80
2017-09-12T16:52:35.414Z,15.70
2017-09-12T16:55:02.906Z,15.70
2017-09-12T16:57:30.389Z,15.70
2017-09-12T16:59:58.651Z,15.60
2017-09-12T17:02:26.889Z,15.70
2017-09-12T17:04:54.390Z,15.60
2017-09-12T17:07:22.645Z,15.60
2017-09-12T17:09:50.137Z,15.60
2017-09-12T17:12:17.614Z,15.50
2017-09-12T17:14:45.105Z,15.50
2017-09-12T17:17:12.586Z,15.40
2017-09-12T17:19:40.854Z,15.40
2017-09-12T17:22:08.342Z,15.40
2017-09-12T17:24:35.817Z,15.30
2017-09-12T17:27:03.309Z,15.30
2017-09-12T17:29:31.043Z,15.30
2017-09-12T17:31:58.533Z,15.30
2017-09-12T17:34:26.008Z,15.30
2017-09-12T17:36:53.821Z,15.20
2017-09-12T17:39:21.293Z,15.20
2017-09-12T17:41:48.818Z,15.10
2017-09-12T17:44:16.317Z,15.10
2017-09-12T17:46:43.786Z,15.00
2017-09-12T17:49:11.278Z,15.00
2017-09-12T17:51:39.557Z,14.90
2017-09-12T17:54:07.802Z,14.90
2017-09-12T17:56:35.281Z,14.80
2017-09-12T17:59:03.530Z,14.80
2017-09-12T18:01:31.023Z,14.80
2017-09-12T18:03:58.534Z,14.80
2017-09-12T18:06:26.018Z,14.80
2017-09-12T18:08:54.282Z,14.80
2017-09-12T18:11:21.769Z,14.70
2017-09-12T18:13:49.254Z,14.70
2017-09-12T18:16:16.754Z,14.70
2017-09-12T18:18:44.253Z,14.70
2017-09-12T18:21:11.736Z,14.70
2017-09-12T18:23:39.494Z,14.70
2017-09-12T18:26:06.989Z,14.70
2017-09-12T18:28:34.470Z,14.70
2017-09-12T18:31:02.733Z,14.70
2017-09-12T18:33:30.982Z,14.60
2017-09-12T18:35:58.458Z,14.60
2017-09-12T18:38:25.955Z,14.60
2017-09-12T18:40:53.441Z,14.60
2017-09-12T18:43:20.941Z,14.60
2017-09-12T18:45:49.194Z,14.50
2017-09-12T18:48:16.694Z,14.50
2017-09-12T18:50:44.169Z,14.50
2017-09-12T18:53:11.643Z,14.30
2017-09-12T18:55:39.142Z,14.30
2017-09-12T18:58:06.637Z,14.40
2017-09-12T19:00:34.129Z,14.40
2017-09-12T19:03:01.605Z,14.40
2017-09-12T19:05:29.083Z,14.30
2017-09-12T19:07:57.343Z,14.30
2017-09-12T19:10:24.825Z,14.30
2017-09-12T19:12:53.086Z,14.30
2017-09-12T19:15:21.335Z,14.20
2017-09-12T19:17:48.814Z,14.30
2017-09-12T19:20:17.075Z,14.30
2017-09-12T19:22:44.550Z,14.30
2017-09-12T19:25:12.814Z,14.20
2017-09-12T19:27:40.535Z,14.20
2017-09-12T19:30:08.029Z,14.20
2017-09-12T19:32:35.506Z,14.20
2017-09-12T19:35:03.762Z,14.20
2017-09-12T19:37:31.242Z,14.10
2017-09-12T19:39:59.505Z,14.10
2017-09-12T19:42:26.990Z,14.10
2017-09-12T19:44:54.503Z,14.10
2017-09-12T19:47:21.979Z,14.10
2017-09-12T19:49:50.243Z,14.20
2017-09-12T19:52:17.726Z,14.10
2017-09-12T19:54:45.970Z,14.10
2017-09-12T19:57:13.480Z,14.10
2017-09-12T19:59:40.959Z,14.10
2017-09-12T20:02:08.450Z,14.10
2017-09-12T20:04:35.931Z,14.10
2017-09-12T20:07:04.186Z,14.00
2017-09-12T20:09:31.667Z,14.00
2017-09-12T20:11:59.957Z,14.00
2017-09-12T20:14:27.430Z,13.90
2017-09-12T20:16:54.927Z,14.00
2017-09-12T20:19:22.409Z,14.00
2017-09-12T20:21:50.661Z,14.00
2017-09-12T20:24:18.157Z,14.00
2017-09-12T20:26:45.637Z,13.90
2017-09-12T20:29:13.131Z,13.90
2017-09-12T20:31:40.615Z,13.90
2017-09-12T20:34:08.878Z,13.90
2017-09-12T20:36:36.590Z,13.80
2017-09-12T20:39:04.081Z,13.80
2017-09-12T20:41:31.569Z,13.80
2017-09-12T20:43:59.826Z,13.70
2017-09-12T20:46:27.307Z,13.70
2017-09-12T20:48:54.806Z,13.70
2017-09-12T20:51:22.285Z,13.70
2017-09-12T20:53:49.761Z,13.70
2017-09-12T20:56:18.024Z,13.60
2017-09-12T20:58:46.273Z,13.60
2017-09-12T21:01:13.774Z,13.60
2017-09-12T21:03:41.249Z,13.70
2017-09-12T21:06:08.746Z,13.60
2017-09-12T21:08:36.221Z,13.60
2017-09-12T21:11:03.713Z,13.60
2017-09-12T21:13:31.950Z,13.50
2017-09-12T21:15:59.447Z,13.50
2017-09-12T21:18:27.686Z,13.40
2017-09-12T21:20:55.162Z,13.30
2017-09-12T21:23:23.426Z,13.40
2017-09-12T21:25:50.899Z,13.40
2017-09-12T21:28:19.161Z,13.30
2017-09-12T21:30:46.638Z,13.30
2017-09-12T21:33:14.902Z,13.30
2017-09-12T21:35:42.390Z,13.30
2017-09-12T21:38:10.629Z,13.30
2017-09-12T21:40:38.122Z,13.20
2017-09-12T21:43:05.598Z,13.20
2017-09-12T21:45:33.089Z,13.20
2017-09-12T21:48:00.562Z,13.30
2017-09-12T21:50:28.042Z,13.20
2017-09-12T21:52:55.533Z,13.20
2017-09-12T21:55:23.013Z,13.20
2017-09-12T21:57:50.509Z,13.20
2017-09-12T22:00:18.749Z,13.20
2017-09-12T22:02:46.249Z,13.20
2017-09-12T22:05:13.723Z,13.10
2017-09-12T22:07:41.201Z,13.10
2017-09-12T22:10:09.461Z,13.00
2017-09-12T22:12:36.938Z,12.90
2017-09-12T22:15:04.438Z,13.00
2017-09-12T22:17:32.677Z,12.90
2017-09-12T22:20:00.173Z,12.90
2017-09-12T22:22:28.418Z,12.80
2017-09-12T22:24:55.898Z,12.80
2017-09-12T22:27:23.389Z,12.80
2017-09-12T22:29:50.894Z,12.80
2017-09-12T22:32:18.366Z,12.70
2017-09-12T22:34:45.861Z,12.70
2017-09-12T22:37:13.333Z,12.70
2017-09-12T22:39:40.805Z,12.70
2017-09-12T22:42:08.309Z,12.70
2017-09-12T22:44:36.568Z,12.70
2017-09-12T22:47:04.062Z,12.70
2017-09-12T22:49:31.863Z,12.70
2017-09-12T22:51:59.346Z,12.60
2017-09-12T22:54:26.826Z,12.60
2017-09-12T22:56:55.063Z,12.60
2017-09-12T22:59:22.558Z,12.50
2017-09-12T23:01:50.801Z,12.60
2017-09-12T23:04:18.294Z,12.50
2017-09-12T23:06:46.538Z,12.50
2017-09-12T23:09:14.022Z,12.50
2017-09-12T23:11:42.278Z,12.60
2017-09-12T23:14:09.756Z,12.50
2017-09-12T23:16:38.018Z,12.50
2017-09-12T23:19:06.258Z,12.40
2017-09-12T23:21:34.532Z,12.40
2017-09-12T23:24:02.006Z,12.40
2017-09-12T23:26:29.482Z,12.40
2017-09-12T23:28:56.978Z,12.40
2017-09-12T23:31:24.458Z,12.40
2017-09-12T23:33:52.725Z,12.50
2017-09-12T23:36:20.202Z,12.40
2017-09-12T23:38:48.445Z,12.40
2017-09-12T23:41:15.937Z,12.40
2017-09-12T23:43:43.413Z,12.40
2017-09-12T23:46:10.902Z,12.40
2017-09-12T23:48:38.378Z,12.40
2017-09-12T23:51:05.874Z,12.40
2017-09-12T23:53:33.353Z,12.40
2017-09-12T23:56:01.593Z,12.30
2017-09-12T23:58:29.853Z,12.30
